Time;durP1;ratioP1;P1;durP2;ratioP2;P2;SDS_P1;SDS_P2;PMS_P1;PMS_P2;Temp;Humidity;BMP_temperature;BMP_pressure;BME280_temperature;BME280_humidity;BME280_pressure;Samples;Min_cycle;Max_cycle;Signal;HPM_P1;HPM_P2
2020/12/12 00:00:15;;;;;;;18.26;9.82;;;;;;;-0.04;70.19;99434.51;353863;112;1962007;-75
2020/12/12 00:01:21;;;;;;;17.73;10.82;;;;;;;0.02;70.07;99423.30;351390;111;1962894;-74
2020/12/12 00:02:30;;;;;;;21.75;11.17;;;;;;;0.03;69.92;99427.65;359252;111;1961972;-76
2020/12/12 00:03:34;;;;;;;19.56;10.09;;;;;;;0.06;69.84;99435.33;319114;110;2932035;-75
2020/12/12 00:04:39;;;;;;;18.74;10.16;;;;;;;0.13;69.95;99419.63;337075;111;1961925;-75
2020/12/12 00:05:44;;;;;;;19.45;11.22;;;;;;;0.10;69.58;99422.58;359848;110;1961967;-75
2020/12/12 00:06:51;;;;;;;19.28;11.45;;;;;;;0.09;69.57;99424.41;358379;111;1961915;-75
2020/12/12 00:07:57;;;;;;;21.85;12.14;;;;;;;0.03;69.61;99424.13;329319;110;2570001;-75
2020/12/12 00:09:03;;;;;;;21.59;13.15;;;;;;;-0.06;69.73;99431.16;358863;111;1962030;-75
2020/12/12 00:10:10;;;;;;;21.55;13.50;;;;;;;-0.16;69.93;99422.37;359251;110;1961915;-75
2020/12/12 00:11:17;;;;;;;21.14;13.44;;;;;;;-0.22;69.90;99424.61;333951;113;2219062;-75
2020/12/12 00:12:32;;;;;;;24.69;14.61;;;;;;;-0.29;70.05;99426.19;345498;116;1962039;-75
2020/12/12 00:13:50;;;;;;;21.37;11.97;;;;;;;-0.38;70.45;99424.37;356674;112;1961986;-71
2020/12/12 00:14:55;;;;;;;20.63;12.60;;;;;;;-0.53;70.82;99420.47;335653;112;1961976;-73
2020/12/12 00:16:00;;;;;;;19.18;10.41;;;;;;;-0.55;71.06;99419.80;366898;108;1961864;-73
2020/12/12 00:17:05;;;;;;;20.92;11.22;;;;;;;-0.55;71.18;99436.55;364917;108;1964940;-72
2020/12/12 00:18:12;;;;;;;21.99;10.48;;;;;;;-0.49;71.11;99428.02;364623;109;1962003;-72
2020/12/12 00:19:18;;;;;;;16.70;9.79;;;;;;;-0.46;71.07;99422.42;334627;108;2523001;-72
2020/12/12 00:20:24;;;;;;;21.13;10.76;;;;;;;-0.44;71.21;99427.59;365481;108;1962034;-71
2020/12/12 00:21:29;;;;;;;17.59;9.94;;;;;;;-0.36;71.09;99435.69;362459;108;1961952;-72
2020/12/12 00:22:35;;;;;;;17.37;9.52;;;;;;;-0.28;70.96;99425.20;364153;108;1961986;-71
2020/12/12 00:23:42;;;;;;;18.74;9.76;;;;;;;-0.24;70.97;99421.29;349851;108;2235932;-71
2020/12/12 00:24:47;;;;;;;17.65;10.42;;;;;;;-0.23;70.79;99420.30;352002;107;1961950;-71
2020/12/12 00:25:53;;;;;;;18.37;10.42;;;;;;;-0.26;70.91;99423.24;356474;111;1961944;-71
2020/12/12 00:26:58;;;;;;;17.66;9.72;;;;;;;-0.20;70.97;99424.48;364435;109;1961938;-71
2020/12/12 00:28:15;;;;;;;18.38;9.44;;;;;;;-0.22;70.52;99414.00;356390;111;1961946;-71
2020/12/12 00:29:21;;;;;;;18.23;9.81;;;;;;;-0.13;70.73;99420.29;338685;109;2222988;-73
2020/12/12 00:30:28;;;;;;;19.44;8.76;;;;;;;-0.10;70.33;99405.89;361077;109;1963026;-71
2020/12/12 00:31:34;;;;;;;19.61;10.28;;;;;;;-0.08;70.43;99418.04;359467;112;1962046;-71
2020/12/12 00:32:40;;;;;;;17.88;9.69;;;;;;;0.05;70.03;99414.21;320920;110;2690012;-72
2020/12/12 00:33:46;;;;;;;15.19;8.68;;;;;;;0.11;69.75;99417.14;339265;109;1961950;-73
2020/12/12 00:34:51;;;;;;;16.38;9.68;;;;;;;0.16;69.61;99406.92;357635;110;1961997;-72
2020/12/12 00:35:59;;;;;;;18.18;10.30;;;;;;;0.11;69.69;99413.66;358593;112;1962019;-72
2020/12/12 00:37:05;;;;;;;20.04;11.06;;;;;;;0.14;69.58;99405.39;358415;110;1962040;-72
2020/12/12 00:38:10;;;;;;;21.04;11.04;;;;;;;0.08;69.59;99408.61;360413;110;1961897;-72
2020/12/12 00:39:20;;;;;;;21.94;11.66;;;;;;;-0.01;69.70;99405.01;356270;108;1962219;-72
2020/12/12 00:40:27;;;;;;;19.33;11.03;;;;;;;-0.11;70.03;99399.72;308681;115;2223989;-72
2020/12/12 00:41:39;;;;;;;20.99;11.93;;;;;;;-0.24;70.36;99401.84;336850;115;1970871;-74
2020/12/12 00:42:45;;;;;;;19.64;10.19;;;;;;;-0.31;70.41;99401.59;344261;115;1963923;-72
2020/12/12 00:43:51;;;;;;;17.75;10.12;;;;;;;-0.38;70.77;99404.96;308822;115;2648014;-72
2020/12/12 00:44:56;;;;;;;18.48;9.97;;;;;;;-0.37;70.83;99407.48;325511;115;1962023;-73
2020/12/12 00:46:04;;;;;;;17.84;9.43;;;;;;;-0.35;70.92;99392.23;343594;115;1961929;-73
2020/12/12 00:47:10;;;;;;;17.32;10.62;;;;;;;-0.31;70.88;99393.64;319960;115;2421965;-72
2020/12/12 00:48:16;;;;;;;16.31;9.47;;;;;;;-0.26;70.83;99402.01;343733;115;1963948;-72
2020/12/12 00:49:22;;;;;;;18.26;9.75;;;;;;;-0.24;70.80;99400.05;335697;118;1961990;-72
2020/12/12 00:50:29;;;;;;;16.66;9.75;;;;;;;-0.17;70.80;99397.65;328652;115;2281961;-72
2020/12/12 00:51:35;;;;;;;16.02;9.14;;;;;;;-0.09;70.69;99391.63;343264;115;1962084;-72
2020/12/12 00:52:40;;;;;;;18.56;9.39;;;;;;;-0.04;70.60;99402.65;344311;115;1961865;-72
2020/12/12 00:53:46;;;;;;;17.84;10.31;;;;;;;0.02;70.35;99406.54;345856;115;1961825;-72
2020/12/12 00:54:52;;;;;;;18.61;9.97;;;;;;;0.02;70.36;99402.06;338748;118;1961027;-72
2020/12/12 00:56:00;;;;;;;16.72;9.01;;;;;;;-0.01;70.42;99397.05;338925;115;1962023;-72
2020/12/12 00:57:08;;;;;;;18.68;10.07;;;;;;;0.10;70.41;99403.99;344084;115;1962036;-72
2020/12/12 00:58:22;;;;;;;20.15;10.22;;;;;;;0.12;69.89;99405.52;344926;115;1962034;-73
2020/12/12 00:59:28;;;;;;;18.48;8.98;;;;;;;0.19;69.96;99398.66;349962;111;1961954;-72
2020/12/12 01:00:39;;;;;;;17.58;10.53;;;;;;;0.21;69.90;99407.32;347287;114;1962036;-72
2020/12/12 01:01:46;;;;;;;16.38;9.94;;;;;;;0.24;69.84;99402.67;314376;113;2957919;-73
2020/12/12 01:02:52;;;;;;;19.61;11.77;;;;;;;0.16;69.47;99403.41;342839;116;1961853;-72
2020/12/12 01:03:59;;;;;;;21.89;11.24;;;;;;;0.04;69.88;99401.93;344797;115;1964040;-73
2020/12/12 01:05:05;;;;;;;20.90;12.19;;;;;;;-0.07;70.16;99411.73;315974;117;2556903;-72
2020/12/12 01:06:13;;;;;;;19.63;11.18;;;;;;;-0.12;70.39;99405.19;340143;117;1962093;-72
2020/12/12 01:07:23;;;;;;;19.23;10.98;;;;;;;-0.18;70.34;99405.77;290376;119;2185974;-71
2020/12/12 01:08:29;;;;;;;21.01;9.91;;;;;;;-0.24;70.76;99408.02;291327;119;2153156;-71
2020/12/12 01:09:45;;;;;;;19.26;10.06;;;;;;;-0.25;70.81;99408.98;325902;117;1964280;-72
2020/12/12 01:10:51;;;;;;;17.80;9.33;;;;;;;-0.27;71.20;99407.45;337126;116;1963092;-72
2020/12/12 01:11:57;;;;;;;16.54;8.67;;;;;;;-0.20;70.95;99405.08;336481;118;1964008;-72
2020/12/12 01:13:03;;;;;;;16.22;8.73;;;;;;;-0.11;70.71;99404.20;316627;118;1962937;-72
2020/12/12 01:14:08;;;;;;;16.49;8.89;;;;;;;-0.03;70.48;99397.20;335965;118;1962900;-71
2020/12/12 01:15:13;;;;;;;16.48;8.49;;;;;;;0.03;70.18;99400.23;335805;118;1963062;-72
2020/12/12 01:16:21;;;;;;;18.04;9.79;;;;;;;0.07;70.26;99391.01;337537;117;1962012;-71
2020/12/12 01:17:26;;;;;;;17.31;9.07;;;;;;;0.04;69.91;99397.45;308557;118;2497941;-72
2020/12/12 01:18:32;;;;;;;19.69;9.76;;;;;;;0.08;70.14;99396.19;335698;118;1963938;-71
2020/12/12 01:19:37;;;;;;;17.77;9.65;;;;;;;0.10;70.16;99396.86;335178;118;1961982;-71
2020/12/12 01:20:45;;;;;;;16.88;8.74;;;;;;;0.12;69.96;99389.59;298223;118;2887007;-71
2020/12/12 01:21:53;;;;;;;17.01;8.93;;;;;;;0.14;69.91;99395.59;322503;119;1962857;-71
2020/12/12 01:22:59;;;;;;;18.92;9.66;;;;;;;0.15;69.86;99401.73;299686;121;2701011;-71
2020/12/12 01:24:05;;;;;;;18.16;10.38;;;;;;;0.16;69.77;99398.09;311345;119;1960827;-72
2020/12/12 01:25:10;;;;;;;18.68;10.14;;;;;;;0.11;69.74;99398.55;334629;119;1960904;-71
2020/12/12 01:26:17;;;;;;;21.20;11.58;;;;;;;0.07;69.81;99396.32;335268;119;1961962;-72
2020/12/12 01:27:23;;;;;;;22.53;11.84;;;;;;;-0.01;69.97;99391.73;297336;119;2104513;-71
2020/12/12 01:28:28;;;;;;;19.46;11.63;;;;;;;-0.10;70.36;99390.79;332183;119;1964908;-69
2020/12/12 01:29:33;;;;;;;19.50;10.61;;;;;;;-0.22;70.87;99394.58;332791;119;1961983;-71
2020/12/12 01:30:39;;;;;;;19.59;10.41;;;;;;;-0.30;70.66;99392.64;335175;119;1962013;-71
2020/12/12 01:31:48;;;;;;;18.74;10.41;;;;;;;-0.31;70.77;99390.98;333152;119;1962053;-71
2020/12/12 01:32:55;;;;;;;19.34;10.50;;;;;;;-0.33;71.22;99384.14;334162;119;1962014;-70
2020/12/12 01:34:14;;;;;;;20.66;9.68;;;;;;;-0.33;71.40;99386.80;308179;120;2418897;-71
2020/12/12 01:35:20;;;;;;;18.23;8.83;;;;;;;-0.31;71.42;99393.64;351251;111;1961900;-71
2020/12/12 01:36:27;;;;;;;17.97;8.94;;;;;;;-0.19;71.06;99398.77;353723;111;1962024;-71
2020/12/12 01:37:33;;;;;;;18.18;10.38;;;;;;;-0.13;71.04;99404.36;353909;111;1961993;-71
2020/12/12 01:38:39;;;;;;;18.24;9.28;;;;;;;-0.13;71.03;99388.43;315530;111;2697898;-73
2020/12/12 01:39:44;;;;;;;17.77;10.11;;;;;;;-0.06;70.88;99399.30;329284;111;1962003;-72
2020/12/12 01:40:53;;;;;;;16.71;9.67;;;;;;;-0.02;70.79;99385.59;354366;111;1964724;-72
2020/12/12 01:41:58;;;;;;;16.39;9.11;;;;;;;0.04;70.76;99394.80;317646;112;1996430;-71
2020/12/12 01:43:04;;;;;;;17.82;9.33;;;;;;;0.11;70.64;99387.09;345268;111;1962055;-70
2020/12/12 01:44:09;;;;;;;15.92;9.16;;;;;;;0.19;70.63;99400.48;354964;111;1961943;-72
2020/12/12 01:45:14;;;;;;;17.87;9.19;;;;;;;0.27;70.09;99389.13;352787;111;1961968;-72
2020/12/12 01:46:27;;;;;;;14.98;7.97;;;;;;;0.28;69.88;99390.78;324723;111;2519862;-71
2020/12/12 01:47:34;;;;;;;17.07;9.27;;;;;;;0.28;69.80;99385.47;355050;111;1961937;-71
2020/12/12 01:48:40;;;;;;;19.84;10.82;;;;;;;0.30;69.76;99387.00;354508;111;1963006;-71
2020/12/12 01:49:46;;;;;;;18.03;9.89;;;;;;;0.28;69.66;99382.81;355282;111;1961966;-71
2020/12/12 01:50:52;;;;;;;17.76;10.23;;;;;;;0.28;69.77;99390.78;346823;111;1963044;-71
2020/12/12 01:51:57;;;;;;;20.44;10.14;;;;;;;0.22;69.69;99394.88;354887;111;1961958;-71
2020/12/12 01:53:04;;;;;;;19.34;10.47;;;;;;;0.17;69.72;99392.64;354561;111;1962028;-72
2020/12/12 01:54:10;;;;;;;18.22;10.79;;;;;;;0.10;69.71;99388.89;307597;111;2219269;-71
2020/12/12 01:55:15;;;;;;;23.09;12.34;;;;;;;0.01;70.07;99391.60;354626;111;1962967;-72
2020/12/12 01:56:21;;;;;;;19.72;10.43;;;;;;;-0.06;70.00;99393.98;354960;111;1961648;-73
2020/12/12 01:57:28;;;;;;;20.77;11.50;;;;;;;-0.16;70.45;99391.37;354936;111;1960732;-72
2020/12/12 01:58:33;;;;;;;21.89;11.25;;;;;;;-0.24;70.81;99385.92;326726;111;1961935;-71
2020/12/12 01:59:40;;;;;;;16.54;9.60;;;;;;;-0.27;70.88;99395.01;352741;112;1961950;-72
2020/12/12 02:00:59;;;;;;;17.53;10.18;;;;;;;-0.33;71.32;99394.76;349569;113;1960828;-71
2020/12/12 02:02:09;;;;;;;19.32;9.06;;;;;;;-0.29;71.06;99390.82;356642;112;1962987;-70
2020/12/12 02:03:18;;;;;;;15.31;8.26;;;;;;;-0.20;71.04;99395.28;356021;113;1961965;-72
2020/12/12 02:04:25;;;;;;;20.54;10.58;;;;;;;-0.13;70.82;99393.73;355948;113;1962923;-72
2020/12/12 02:05:42;;;;;;;15.27;8.17;;;;;;;-0.14;71.10;99392.05;326765;113;2530106;-70
2020/12/12 02:06:48;;;;;;;18.62;9.23;;;;;;;-0.07;70.86;99389.66;353842;113;1961944;-72
2020/12/12 02:07:54;;;;;;;17.15;8.71;;;;;;;0.04;70.67;99388.65;354144;113;1961996;-71
2020/12/12 02:09:00;;;;;;;16.79;9.23;;;;;;;0.08;70.55;99390.87;331777;113;2221978;-70
2020/12/12 02:10:05;;;;;;;16.76;9.48;;;;;;;0.12;70.43;99392.24;344014;113;1962438;-72
2020/12/12 02:11:12;;;;;;;15.96;8.37;;;;;;;0.17;70.20;99387.33;354491;113;1961911;-71
2020/12/12 02:12:18;;;;;;;16.81;8.94;;;;;;;0.18;70.25;99390.81;346829;115;1961997;-69
2020/12/12 02:13:24;;;;;;;19.48;9.59;;;;;;;0.22;69.68;99394.88;332562;113;2377005;-72
2020/12/12 02:14:32;;;;;;;17.31;9.27;;;;;;;0.25;69.79;99383.12;351080;113;1961954;-72
2020/12/12 02:15:38;;;;;;;20.79;10.41;;;;;;;0.21;69.69;99394.04;320959;113;2609916;-71
2020/12/12 02:16:54;;;;;;;20.18;10.12;;;;;;;0.25;69.80;99397.23;353654;113;1962006;-71
2020/12/12 02:18:01;;;;;;;19.79;10.82;;;;;;;0.28;69.70;99388.12;353266;113;1961950;-70
2020/12/12 02:19:06;;;;;;;19.41;11.52;;;;;;;0.23;69.42;99387.73;334456;113;2343000;-70
2020/12/12 02:20:12;;;;;;;21.83;11.83;;;;;;;0.10;69.30;99372.95;353134;113;1961951;-70
2020/12/12 02:21:17;;;;;;;23.86;11.91;;;;;;;0.12;69.21;99378.96;352472;113;1961961;-72
2020/12/12 02:22:22;;;;;;;20.69;12.15;;;;;;;0.01;69.57;99384.47;353450;113;1961951;-72
2020/12/12 02:23:28;;;;;;;21.77;11.78;;;;;;;-0.10;69.98;99382.83;351925;113;1961950;-73
2020/12/12 02:24:34;;;;;;;25.71;13.14;;;;;;;-0.20;70.22;99376.70;328513;113;2487942;-72
2020/12/12 02:25:39;;;;;;;22.44;12.22;;;;;;;-0.30;70.73;99378.55;342144;113;1961942;-71
2020/12/12 02:26:48;;;;;;;20.83;10.35;;;;;;;-0.34;70.74;99379.83;352653;113;1961974;-73
2020/12/12 02:27:57;;;;;;;21.83;10.13;;;;;;;-0.37;70.82;99372.12;353312;113;1961948;-71
2020/12/12 02:29:01;;;;;;;18.29;10.12;;;;;;;-0.37;71.08;99380.95;353536;113;1961969;-72
2020/12/12 02:30:08;;;;;;;16.73;9.38;;;;;;;-0.31;70.88;99376.87;338076;113;2242018;-71
2020/12/12 02:31:14;;;;;;;16.84;8.89;;;;;;;-0.30;71.09;99375.89;353045;113;1961935;-72
2020/12/12 02:32:27;;;;;;;17.42;9.34;;;;;;;-0.25;70.96;99371.81;355461;113;1961973;-71
2020/12/12 02:33:33;;;;;;;17.31;8.58;;;;;;;-0.19;70.78;99370.41;357890;109;1964975;-70
2020/12/12 02:34:38;;;;;;;17.69;8.72;;;;;;;-0.13;70.71;99372.50;360687;111;1961894;-71
2020/12/12 02:35:45;;;;;;;16.14;8.51;;;;;;;-0.10;70.60;99377.52;354385;112;1962991;-71
2020/12/12 02:36:50;;;;;;;16.26;8.52;;;;;;;-0.06;70.41;99372.74;336421;107;2276942;-71
2020/12/12 02:37:56;;;;;;;17.54;8.67;;;;;;;0.01;70.54;99373.02;325247;113;1963325;-70
2020/12/12 02:39:01;;;;;;;18.19;9.09;;;;;;;0.01;69.89;99371.19;345677;115;1963032;-70
2020/12/12 02:40:06;;;;;;;16.37;9.36;;;;;;;0.05;70.24;99375.20;350945;113;1962963;-71
2020/12/12 02:41:12;;;;;;;18.35;8.76;;;;;;;0.12;70.11;99364.86;345174;115;1962029;-71
2020/12/12 02:42:17;;;;;;;16.33;8.96;;;;;;;0.08;69.87;99364.32;344995;115;1962954;-71
2020/12/12 02:43:22;;;;;;;18.17;10.98;;;;;;;0.04;70.02;99365.58;344887;115;1961968;-71
2020/12/12 02:44:28;;;;;;;14.56;8.88;;;;;;;0.08;69.98;99360.80;323818;115;2387703;-71
2020/12/12 02:45:33;;;;;;;20.91;10.38;;;;;;;0.05;69.91;99367.24;323008;115;1963042;-71
2020/12/12 02:46:41;;;;;;;18.65;10.92;;;;;;;0.01;70.08;99365.88;345055;115;1962008;-70
2020/12/12 02:47:47;;;;;;;18.58;10.63;;;;;;;0.01;70.06;99371.19;317258;115;2499983;-71
2020/12/12 02:48:52;;;;;;;19.22;10.08;;;;;;;-0.07;70.24;99371.91;329037;115;1961955;-71
2020/12/12 02:50:02;;;;;;;19.51;9.57;;;;;;;-0.09;70.35;99367.73;345443;115;1961993;-71
2020/12/12 02:51:08;;;;;;;17.63;10.06;;;;;;;-0.11;70.50;99370.52;345589;115;1961986;-71
2020/12/12 02:52:13;;;;;;;18.74;9.99;;;;;;;-0.03;70.31;99362.69;345226;115;1962026;-71
2020/12/12 02:53:19;;;;;;;17.04;9.46;;;;;;;-0.01;70.03;99365.17;348591;114;1962071;-73
2020/12/12 02:54:26;;;;;;;16.87;10.42;;;;;;;0.01;70.10;99368.53;305094;115;2739968;-71
2020/12/12 02:55:31;;;;;;;16.17;9.71;;;;;;;0.03;69.85;99365.72;325496;115;1962039;-72
2020/12/12 02:56:38;;;;;;;18.59;9.83;;;;;;;0.07;69.79;99362.63;345198;115;1961968;-72
2020/12/12 02:57:44;;;;;;;20.57;10.17;;;;;;;0.07;69.62;99367.11;304453;115;2770014;-72
2020/12/12 02:58:50;;;;;;;19.54;10.79;;;;;;;0.07;69.69;99356.48;343883;115;1964970;-73
2020/12/12 02:59:55;;;;;;;21.31;11.98;;;;;;;0.02;69.62;99370.19;344597;115;1962021;-70
2020/12/12 03:01:03;;;;;;;24.10;12.17;;;;;;;-0.05;69.81;99372.61;344507;115;1962014;-73
2020/12/12 03:02:08;;;;;;;21.05;12.22;;;;;;;-0.12;69.99;99371.51;333909;115;1963861;-72
2020/12/12 03:03:13;;;;;;;20.61;12.51;;;;;;;-0.19;70.12;99372.22;340721;117;1961990;-72
2020/12/12 03:04:19;;;;;;;21.24;11.25;;;;;;;-0.22;69.99;99368.04;342245;115;1961934;-72
2020/12/12 03:05:26;;;;;;;21.73;12.43;;;;;;;-0.29;70.19;99370.45;298133;115;2215465;-73
2020/12/12 03:06:33;;;;;;;17.74;10.61;;;;;;;-0.30;70.20;99363.45;347953;115;1963953;-72
2020/12/12 03:07:39;;;;;;;18.52;10.75;;;;;;;-0.31;70.23;99374.23;346348;115;1961928;-72
2020/12/12 03:08:45;;;;;;;18.93;10.75;;;;;;;-0.38;70.72;99368.64;312847;115;2610997;-72
2020/12/12 03:09:50;;;;;;;20.04;11.51;;;;;;;-0.40;70.87;99370.59;330800;115;1962029;-72
2020/12/12 03:10:56;;;;;;;22.73;11.98;;;;;;;-0.37;70.87;99369.47;344617;115;1961946;-71
2020/12/12 03:12:01;;;;;;;19.26;10.09;;;;;;;-0.31;70.78;99369.75;346437;115;1961962;-72
2020/12/12 03:13:07;;;;;;;19.33;9.97;;;;;;;-0.24;70.62;99365.55;344062;115;1961017;-71
2020/12/12 03:14:13;;;;;;;17.33;9.31;;;;;;;-0.23;70.32;99369.87;345301;115;1962016;-72
2020/12/12 03:15:19;;;;;;;18.74;9.64;;;;;;;-0.17;70.28;99365.80;309881;115;2649908;-71
2020/12/12 03:16:25;;;;;;;16.31;9.98;;;;;;;-0.17;70.07;99362.30;344937;115;1961970;-72
2020/12/12 03:17:30;;;;;;;17.18;8.87;;;;;;;-0.12;70.16;99370.67;343616;115;1962003;-72
2020/12/12 03:18:36;;;;;;;16.58;9.45;;;;;;;-0.06;70.10;99370.09;342746;115;1962016;-72
2020/12/12 03:19:42;;;;;;;15.97;9.57;;;;;;;-0.06;69.97;99378.05;314917;115;2234989;-71
2020/12/12 03:20:49;;;;;;;18.89;10.51;;;;;;;-0.02;69.74;99374.14;345250;115;1961977;-72
2020/12/12 03:21:55;;;;;;;17.14;9.17;;;;;;;0.01;69.96;99373.84;342497;115;1962004;-72
2020/12/12 03:23:01;;;;;;;20.18;10.47;;;;;;;0.04;69.70;99370.89;318440;115;2495810;-72
2020/12/12 03:24:06;;;;;;;20.57;10.29;;;;;;;0.01;69.53;99368.53;343174;115;1962081;-73
2020/12/12 03:25:12;;;;;;;16.92;10.45;;;;;;;-0.01;69.37;99370.49;347442;115;1960913;-72
2020/12/12 03:26:18;;;;;;;21.03;12.45;;;;;;;-0.04;69.07;99378.75;343535;115;1960941;-72
2020/12/12 03:27:24;;;;;;;19.83;12.23;;;;;;;-0.15;69.38;99370.97;317060;115;2549959;-72
2020/12/12 03:28:29;;;;;;;22.51;12.02;;;;;;;-0.24;69.38;99384.13;317778;117;1961953;-72
2020/12/12 03:29:37;;;;;;;22.10;12.79;;;;;;;-0.31;69.42;99374.23;345213;115;1964885;-73
2020/12/12 03:30:55;;;;;;;22.63;13.13;;;;;;;-0.40;69.86;99377.72;344924;115;1961961;-73
2020/12/12 03:32:01;;;;;;;30.83;13.62;;;;;;;-0.48;70.09;99375.78;351556;113;1962025;-73
2020/12/12 03:33:07;;;;;;;21.46;11.99;;;;;;;-0.54;69.84;99379.01;328893;113;2228942;-73
2020/12/12 03:34:12;;;;;;;20.43;11.55;;;;;;;-0.62;70.22;99374.41;339979;115;1961978;-73
2020/12/12 03:35:17;;;;;;;22.01;12.46;;;;;;;-0.69;70.64;99378.59;347447;114;1961937;-72
2020/12/12 03:36:24;;;;;;;22.45;11.03;;;;;;;-0.72;70.74;99377.06;348176;114;1960974;-73
2020/12/12 03:37:30;;;;;;;20.25;9.98;;;;;;;-0.79;71.46;99370.67;307807;114;2725033;-73
2020/12/12 03:38:35;;;;;;;18.92;9.49;;;;;;;-0.75;71.06;99382.66;331007;114;1961974;-73
2020/12/12 03:39:41;;;;;;;22.43;10.03;;;;;;;-0.68;70.94;99378.47;347780;114;1962013;-73
2020/12/12 03:40:48;;;;;;;19.54;10.03;;;;;;;-0.60;70.92;99380.42;348145;114;1961970;-73
2020/12/12 03:41:54;;;;;;;19.52;9.00;;;;;;;-0.60;71.09;99375.11;308486;110;2747000;-70
2020/12/12 03:43:00;;;;;;;20.27;9.87;;;;;;;-0.48;70.80;99383.73;328672;110;1961951;-71
2020/12/12 03:44:05;;;;;;;20.17;9.37;;;;;;;-0.45;70.45;99379.00;357257;111;1962953;-71
2020/12/12 03:45:20;;;;;;;18.10;9.69;;;;;;;-0.46;70.50;99379.97;357553;111;1961930;-71
2020/12/12 03:46:27;;;;;;;17.93;9.66;;;;;;;-0.37;70.72;99377.44;345421;117;1961948;-71
2020/12/12 03:47:32;;;;;;;17.93;9.57;;;;;;;-0.36;70.49;99374.65;328147;115;2280297;-70
2020/12/12 03:48:41;;;;;;;17.41;9.17;;;;;;;-0.27;70.39;99376.42;331157;115;1961960;-71
2020/12/12 03:49:46;;;;;;;17.29;10.02;;;;;;;-0.25;69.91;99377.13;343142;117;1961893;-71
2020/12/12 03:51:02;;;;;;;17.47;8.77;;;;;;;-0.19;70.01;99377.53;301156;117;2219055;-71
2020/12/12 03:52:07;;;;;;;19.37;10.00;;;;;;;-0.17;69.70;99372.92;349398;113;1961959;-71
2020/12/12 03:53:12;;;;;;;18.06;9.88;;;;;;;-0.16;69.71;99372.80;351871;113;1963036;-71
2020/12/12 03:54:31;;;;;;;16.01;9.52;;;;;;;-0.20;69.74;99379.36;352914;113;1962073;-71
2020/12/12 03:55:36;;;;;;;19.42;11.23;;;;;;;-0.22;69.71;99379.48;352102;112;1962001;-69
2020/12/12 03:56:43;;;;;;;19.51;11.57;;;;;;;-0.27;69.71;99378.25;345264;114;1962076;-69
2020/12/12 03:57:48;;;;;;;19.91;11.28;;;;;;;-0.38;69.76;99379.25;309812;114;2725026;-71
2020/12/12 03:58:54;;;;;;;19.58;10.80;;;;;;;-0.48;70.13;99378.44;327812;116;1962159;-70
2020/12/12 03:59:59;;;;;;;17.94;9.79;;;;;;;-0.54;70.04;99376.36;344521;113;1961965;-73
2020/12/12 04:01:04;;;;;;;18.91;10.92;;;;;;;-0.57;69.94;99387.26;349357;115;1961994;-75
2020/12/12 04:02:11;;;;;;;19.97;11.31;;;;;;;-0.64;70.28;99383.48;349341;113;1961918;-73
2020/12/12 04:03:16;;;;;;;19.10;10.91;;;;;;;-0.65;70.49;99384.48;322170;113;2497972;-72
2020/12/12 04:04:22;;;;;;;21.12;10.48;;;;;;;-0.65;70.64;99376.52;341276;115;1962035;-73
2020/12/12 04:05:27;;;;;;;17.96;9.44;;;;;;;-0.65;70.73;99379.17;342623;115;1962088;-73
2020/12/12 04:06:34;;;;;;;23.56;9.51;;;;;;;-0.69;70.70;99379.46;340644;116;1961985;-73
2020/12/12 04:07:40;;;;;;;17.16;9.49;;;;;;;-0.63;70.64;99386.02;314398;116;2513028;-73
2020/12/12 04:08:45;;;;;;;16.83;8.86;;;;;;;-0.56;70.57;99375.66;307939;119;1962042;-73
2020/12/12 04:09:51;;;;;;;18.61;9.34;;;;;;;-0.54;70.54;99379.84;342059;115;1961998;-73
2020/12/12 04:10:56;;;;;;;16.56;8.79;;;;;;;-0.45;70.53;99370.19;343913;115;1964003;-73
2020/12/12 04:12:03;;;;;;;16.11;9.58;;;;;;;-0.41;70.34;99374.23;340746;115;1961973;-72
2020/12/12 04:13:09;;;;;;;21.52;9.71;;;;;;;-0.43;69.97;99378.84;306253;115;2691929;-72
2020/12/12 04:14:14;;;;;;;17.99;9.84;;;;;;;-0.40;70.12;99378.55;321372;115;1962047;-73
2020/12/12 04:15:20;;;;;;;20.45;9.65;;;;;;;-0.37;70.04;99374.78;341904;117;1963983;-73
2020/12/12 04:16:25;;;;;;;20.17;10.03;;;;;;;-0.34;70.16;99375.34;341897;115;1962102;-73
2020/12/12 04:17:31;;;;;;;18.37;10.65;;;;;;;-0.31;70.01;99364.44;343225;115;1961919;-73
2020/12/12 04:18:37;;;;;;;19.39;10.46;;;;;;;-0.31;70.07;99369.75;311971;115;2533878;-72
2020/12/12 04:19:42;;;;;;;17.54;9.91;;;;;;;-0.30;69.70;99359.97;319050;116;1962961;-73
2020/12/12 04:20:50;;;;;;;16.79;9.16;;;;;;;-0.26;69.53;99362.20;344168;116;1962049;-73
2020/12/12 04:21:55;;;;;;;18.46;10.57;;;;;;;-0.32;69.54;99368.09;342068;115;1962015;-73
2020/12/12 04:23:01;;;;;;;17.04;9.48;;;;;;;-0.30;69.55;99374.06;309411;116;2661964;-73
2020/12/12 04:24:06;;;;;;;19.07;10.67;;;;;;;-0.34;69.45;99370.05;323581;116;1963962;-73
2020/12/12 04:25:11;;;;;;;20.16;11.43;;;;;;;-0.42;69.56;99366.41;342344;115;1961918;-74
2020/12/12 04:26:18;;;;;;;30.06;15.01;;;;;;;-0.53;69.66;99362.97;337850;117;1964034;-73
2020/12/12 04:27:24;;;;;;;18.92;12.04;;;;;;;-0.59;70.04;99365.33;312405;115;2527256;-73
2020/12/12 04:28:30;;;;;;;28.06;12.16;;;;;;;-0.65;70.13;99365.91;322861;115;1961932;-73
2020/12/12 04:29:35;;;;;;;20.82;10.13;;;;;;;-0.70;70.11;99355.72;342738;115;1963007;-73
2020/12/12 04:30:43;;;;;;;17.35;10.13;;;;;;;-0.75;70.42;99363.26;312799;115;2534039;-72
2020/12/12 04:31:49;;;;;;;17.08;9.97;;;;;;;-0.78;70.63;99363.55;341562;116;1962063;-74
2020/12/12 04:33:05;;;;;;;18.08;9.18;;;;;;;-0.75;70.58;99372.05;343845;115;1962782;-74
2020/12/12 04:34:10;;;;;;;17.19;9.05;;;;;;;-0.70;70.50;99369.81;354868;110;1961822;-70
2020/12/12 04:35:16;;;;;;;19.78;9.50;;;;;;;-1.18;70.62;99285.02;310060;112;2827881;-71
2020/12/12 04:36:22;;;;;;;19.50;10.40;;;;;;;-0.58;70.51;99361.69;353810;112;1961977;-71
2020/12/12 04:37:27;;;;;;;20.06;10.11;;;;;;;-0.57;70.16;99368.69;341977;115;1962938;-70
2020/12/12 04:38:36;;;;;;;18.27;9.41;;;;;;;-0.62;70.13;99355.84;353016;111;1963037;-72
2020/12/12 04:39:44;;;;;;;18.36;9.04;;;;;;;-0.50;70.24;99367.98;352400;111;1962048;-70
2020/12/12 04:40:52;;;;;;;18.46;10.23;;;;;;;-0.42;69.90;99366.41;309371;112;2240108;-71
2020/12/12 04:41:59;;;;;;;18.53;10.32;;;;;;;-0.37;69.95;99364.16;358618;112;1961983;-72
2020/12/12 04:43:06;;;;;;;20.51;9.86;;;;;;;-0.33;69.91;99361.09;323866;112;1962054;-70
2020/12/12 04:44:12;;;;;;;20.03;10.59;;;;;;;-0.31;69.64;99361.78;353510;111;1962022;-71
2020/12/12 04:45:21;;;;;;;17.45;10.63;;;;;;;-0.35;69.31;99365.70;330033;114;2462962;-72
2020/12/12 04:46:28;;;;;;;19.22;11.16;;;;;;;-0.44;69.20;99355.95;353110;111;1961968;-72
2020/12/12 04:47:34;;;;;;;19.22;10.39;;;;;;;-0.54;69.32;99352.48;353567;111;1964022;-72
2020/12/12 04:48:41;;;;;;;27.16;14.15;;;;;;;-0.63;69.28;99353.34;353064;112;1961968;-72
2020/12/12 04:49:48;;;;;;;22.79;11.98;;;;;;;-0.73;69.60;99356.84;352833;111;1961958;-71
2020/12/12 04:50:54;;;;;;;20.73;10.86;;;;;;;-0.82;69.76;99359.48;352455;112;1961956;-70
2020/12/12 04:52:03;;;;;;;20.74;10.99;;;;;;;-0.93;69.83;99358.68;338205;112;2303904;-70
2020/12/12 04:53:15;;;;;;;20.95;11.44;;;;;;;-1.02;69.91;99354.20;316297;111;2744965;-71
2020/12/12 04:54:21;;;;;;;18.71;10.62;;;;;;;-1.05;69.86;99364.25;355558;112;1961985;-70
2020/12/12 04:55:28;;;;;;;19.50;11.16;;;;;;;-1.14;70.07;99353.52;353202;111;1961940;-70
2020/12/12 04:56:36;;;;;;;18.89;9.67;;;;;;;-1.23;69.95;99364.92;353259;112;1962965;-71
2020/12/12 04:57:44;;;;;;;23.24;9.67;;;;;;;-1.30;70.30;99362.97;345041;114;2884987;-71
2020/12/12 04:58:50;;;;;;;18.24;9.01;;;;;;;-1.35;70.70;99361.58;354449;111;1961974;-70
2020/12/12 05:00:00;;;;;;;19.27;9.31;;;;;;;-1.34;70.52;99360.59;353985;111;1961917;-72
2020/12/12 05:01:05;;;;;;;16.44;8.17;;;;;;;-1.35;70.80;99352.77;353107;112;1961958;-72
2020/12/12 05:02:14;;;;;;;16.10;7.87;;;;;;;-1.30;70.80;99352.36;304416;113;2197813;-71